Time;durP1;ratioP1;P1;durP2;ratioP2;P2;SDS_P1;SDS_P2;PMS_P1;PMS_P2;Temp;Humidity;BMP_temperature;BMP_pressure;BME280_temperature;BME280_humidity;BME280_pressure;Samples;Min_cycle;Max_cycle;Signal;HPM_P1;HPM_P2
2022/03/02 00:02:11;;;;;;;14.38;8.88;;;;;;;9.77;78.37;100962.28;1731462;81;21165;-64
2022/03/02 00:04:38;;;;;;;19.07;10.55;;;;;;;9.71;79.36;100960.34;1652963;84;21585;-66
2022/03/02 00:07:05;;;;;;;17.80;10.53;;;;;;;9.84;77.93;100967.18;1675471;83;21019;-81
2022/03/02 00:09:33;;;;;;;17.62;10.30;;;;;;;9.88;77.18;100959.37;1675435;83;21197;-63
2022/03/02 00:12:04;;;;;;;14.85;9.00;;;;;;;9.93;76.38;100961.02;1690006;83;21029;-62
2022/03/02 00:14:31;;;;;;;18.52;10.05;;;;;;;9.95;75.90;100953.84;1705004;83;21143;-63
2022/03/02 00:16:58;;;;;;;16.42;10.00;;;;;;;9.92;76.01;100956.77;1677506;83;21734;-81
2022/03/02 00:19:25;;;;;;;17.05;10.45;;;;;;;9.91;76.20;100954.34;1674277;83;21178;-63
2022/03/02 00:21:52;;;;;;;17.25;9.95;;;;;;;9.78;77.53;100950.92;1674884;84;21106;-65
2022/03/02 00:24:20;;;;;;;19.17;11.10;;;;;;;9.91;76.56;100956.45;1683214;84;21062;-66
2022/03/02 00:26:49;;;;;;;17.62;10.40;;;;;;;9.94;75.78;100961.34;1668962;84;21565;-79
2022/03/02 00:29:15;;;;;;;17.23;9.48;;;;;;;9.83;76.62;100953.84;1677018;84;20958;-64
2022/03/02 00:31:42;;;;;;;15.35;9.63;;;;;;;9.70;77.56;100958.23;1678420;84;21207;-67
2022/03/02 00:34:09;;;;;;;16.87;10.03;;;;;;;9.70;77.89;100951.72;1678812;84;20911;-67
2022/03/02 00:36:36;;;;;;;18.10;9.68;;;;;;;9.84;77.65;100954.66;1673573;84;21062;-62
2022/03/02 00:39:04;;;;;;;17.45;10.23;;;;;;;9.90;76.69;100947.02;1681254;84;21167;-81
2022/03/02 00:41:31;;;;;;;16.77;10.23;;;;;;;9.81;77.42;100951.91;1679075;84;21166;-63
2022/03/02 00:43:57;;;;;;;18.42;10.58;;;;;;;9.81;77.03;100949.30;1672591;83;21569;-63
2022/03/02 00:46:29;;;;;;;16.32;9.18;;;;;;;9.67;78.60;100955.13;1675387;84;20963;-64
2022/03/02 00:48:54;;;;;;;18.05;10.38;;;;;;;9.82;77.74;100953.52;1656991;84;21108;-64
2022/03/02 00:51:21;;;;;;;17.27;10.43;;;;;;;9.81;77.27;100949.77;1685495;83;21580;-64
2022/03/02 00:53:51;;;;;;;16.90;10.23;;;;;;;9.68;78.46;100946.34;1658916;84;21691;-63
2022/03/02 00:56:18;;;;;;;16.62;9.33;;;;;;;9.66;78.64;100948.27;1686390;83;21012;-63
2022/03/02 00:58:46;;;;;;;16.77;9.55;;;;;;;9.80;77.10;100944.23;1694608;83;21142;-82
2022/03/02 01:01:12;;;;;;;18.42;10.13;;;;;;;9.86;76.83;100949.63;1691643;83;21070;-67
2022/03/02 01:03:39;;;;;;;19.30;10.13;;;;;;;9.92;75.69;100941.63;1699008;82;21165;-64
2022/03/02 01:06:07;;;;;;;16.95;9.05;;;;;;;9.69;77.97;100937.55;1688401;83;21046;-63
2022/03/02 01:08:33;;;;;;;17.30;9.40;;;;;;;9.64;78.62;100947.63;1690776;83;21746;-64
2022/03/02 01:11:02;;;;;;;16.40;9.95;;;;;;;9.85;76.84;100940.65;1721226;81;21506;-67
2022/03/02 01:13:44;;;;;;;17.60;10.45;;;;;;;9.86;76.83;100935.30;1732878;81;21044;-65
2022/03/02 01:16:27;;;;;;;16.15;9.28;;;;;;;9.73;77.27;100939.66;1726385;82;21124;-64
2022/03/02 01:19:10;;;;;;;14.65;8.23;;;;;;;9.80;76.93;100941.14;1729837;81;21065;-68
2022/03/02 01:21:52;;;;;;;17.07;10.13;;;;;;;9.85;76.91;100938.89;1727900;81;21053;-67
2022/03/02 01:24:35;;;;;;;18.90;9.65;;;;;;;9.74;78.28;100937.41;1728574;81;21096;-68
2022/03/02 01:27:12;;;;;;;15.72;9.33;;;;;;;9.69;78.61;100937.05;1725368;81;21664;-66
2022/03/02 01:29:39;;;;;;;18.45;9.50;;;;;;;9.68;79.42;100935.92;1731861;81;21510;-68
2022/03/02 01:32:08;;;;;;;16.12;10.23;;;;;;;9.69;79.96;100937.05;1728948;81;21071;-66
2022/03/02 01:34:36;;;;;;;17.65;10.53;;;;;;;9.62;81.17;100936.09;1736894;81;20939;-69
2022/03/02 01:37:03;;;;;;;20.30;9.33;;;;;;;9.58;82.64;100937.84;1734429;81;21006;-64
2022/03/02 01:39:30;;;;;;;19.12;9.68;;;;;;;9.63;82.64;100936.90;1740564;81;21591;-67
2022/03/02 01:41:57;;;;;;;17.57;9.48;;;;;;;9.53;84.27;100936.22;1737646;81;21953;-65
2022/03/02 01:44:24;;;;;;;20.02;10.98;;;;;;;9.67;83.97;100935.60;1746208;81;21608;-64
2022/03/02 01:46:51;;;;;;;21.12;10.55;;;;;;;9.67;83.76;100929.09;1740317;81;21054;-66
2022/03/02 01:49:18;;;;;;;15.58;8.83;;;;;;;9.65;84.60;100924.52;1734415;80;21536;-76
2022/03/02 01:51:44;;;;;;;18.85;10.50;;;;;;;9.62;85.54;100930.05;1650129;85;21000;-64
2022/03/02 01:54:11;;;;;;;19.35;9.80;;;;;;;9.63;86.09;100929.09;1665811;84;21175;-65
2022/03/02 01:56:37;;;;;;;18.52;9.55;;;;;;;9.47;87.78;100926.78;1695139;83;20900;-63
2022/03/02 01:59:05;;;;;;;18.50;9.85;;;;;;;9.59;87.96;100927.78;1695496;83;21145;-66
2022/03/02 02:01:33;;;;;;;16.93;9.15;;;;;;;9.55;88.29;100929.89;1672193;84;21002;-76
2022/03/02 02:04:00;;;;;;;22.42;11.45;;;;;;;9.50;88.68;100929.05;1681812;83;21107;-66
2022/03/02 02:06:29;;;;;;;18.45;10.05;;;;;;;9.60;88.12;100928.91;1695672;83;21176;-65
2022/03/02 02:08:58;;;;;;;20.08;10.38;;;;;;;9.72;87.72;100928.12;1673065;84;22630;-65
2022/03/02 02:11:25;;;;;;;20.88;9.70;;;;;;;9.55;88.77;100925.17;1746344;81;21055;-76
2022/03/02 02:13:52;;;;;;;20.35;9.70;;;;;;;9.52;90.08;100928.09;1739550;81;20983;-67
2022/03/02 02:16:22;;;;;;;23.45;10.58;;;;;;;9.71;88.68;100925.19;1747931;81;21067;-65
2022/03/02 02:18:50;;;;;;;17.95;9.70;;;;;;;9.85;86.46;100919.36;1746924;81;21209;-63
2022/03/02 02:21:19;;;;;;;17.60;9.45;;;;;;;9.87;85.68;100917.88;1746774;81;20990;-63
2022/03/02 02:23:45;;;;;;;17.30;9.50;;;;;;;9.92;84.42;100912.98;1734229;81;20889;-75
2022/03/02 02:26:13;;;;;;;19.55;10.55;;;;;;;9.94;83.24;100907.95;1735263;81;22114;-62
2022/03/02 02:28:55;;;;;;;22.42;10.80;;;;;;;9.95;82.90;100905.67;1735739;81;20999;-67
2022/03/02 02:31:25;;;;;;;17.27;9.45;;;;;;;9.92;83.65;100907.78;1731722;81;21873;-65
2022/03/02 02:33:52;;;;;;;16.27;8.83;;;;;;;9.88;83.33;100907.29;1742489;81;21037;-66
2022/03/02 02:36:20;;;;;;;20.10;9.85;;;;;;;9.42;89.32;100908.21;1738805;81;21138;-66
2022/03/02 02:38:46;;;;;;;17.85;8.98;;;;;;;9.45;90.04;100909.20;1739755;81;20987;-64
2022/03/02 02:41:15;;;;;;;14.78;8.13;;;;;;;9.38;90.60;100906.09;1746616;81;21071;-76
2022/03/02 02:43:42;;;;;;;18.80;9.68;;;;;;;9.94;85.53;100902.75;1744509;81;21403;-64
2022/03/02 02:46:11;;;;;;;21.30;10.18;;;;;;;10.09;81.75;100896.89;1665050;84;21056;-77
2022/03/02 02:48:38;;;;;;;17.42;8.98;;;;;;;9.92;82.59;100901.27;1667778;84;21604;-64
2022/03/02 02:51:07;;;;;;;15.75;9.05;;;;;;;9.98;82.21;100893.63;1675690;84;21095;-71
2022/03/02 02:53:34;;;;;;;16.40;8.15;;;;;;;9.83;83.52;100895.25;1660519;84;21025;-65
2022/03/02 02:56:01;;;;;;;20.65;9.43;;;;;;;9.63;85.18;100896.55;1677749;83;21564;-78
2022/03/02 02:58:27;;;;;;;18.20;8.78;;;;;;;9.69;87.20;100890.19;1665563;83;21126;-65
2022/03/02 03:00:54;;;;;;;17.98;8.65;;;;;;;9.64;85.89;100895.08;1670706;84;21008;-64
2022/03/02 03:03:21;;;;;;;17.60;8.48;;;;;;;9.58;87.45;100890.99;1667845;84;21035;-70
2022/03/02 03:05:48;;;;;;;15.90;8.90;;;;;;;9.75;85.79;100892.16;1734512;81;21588;-64
2022/03/02 03:08:15;;;;;;;17.17;9.18;;;;;;;9.76;85.19;100886.46;1728397;81;21165;-65
2022/03/02 03:10:42;;;;;;;18.45;8.98;;;;;;;9.76;84.97;100878.65;1730005;81;21038;-65
2022/03/02 03:13:11;;;;;;;17.95;8.43;;;;;;;9.74;85.37;100875.41;1733465;81;20901;-66
2022/03/02 03:15:39;;;;;;;22.02;9.63;;;;;;;9.69;85.52;100873.27;1653149;84;20976;-74
2022/03/02 03:18:06;;;;;;;17.20;8.73;;;;;;;9.70;86.04;100877.52;1692255;83;22208;-67
2022/03/02 03:20:34;;;;;;;18.57;9.60;;;;;;;9.68;86.84;100877.35;1687999;83;21570;-65
2022/03/02 03:23:01;;;;;;;20.25;9.08;;;;;;;9.64;86.98;100874.75;1694569;83;21064;-73
2022/03/02 03:25:28;;;;;;;18.87;8.53;;;;;;;9.62;88.33;100877.98;1686882;83;21020;-64
2022/03/02 03:27:56;;;;;;;19.07;10.40;;;;;;;9.72;87.12;100865.64;1694042;83;20995;-64
2022/03/02 03:30:24;;;;;;;20.35;9.85;;;;;;;9.74;86.50;100874.92;1687555;83;21126;-64
2022/03/02 03:32:51;;;;;;;19.87;10.40;;;;;;;9.33;94.81;100877.95;1695462;83;21211;-65
2022/03/02 03:35:19;;;;;;;17.15;9.05;;;;;;;9.71;89.11;100868.73;1692451;83;20970;-65
2022/03/02 03:37:45;;;;;;;18.40;9.43;;;;;;;9.70;89.11;100872.81;1694793;83;21568;-78
2022/03/02 03:40:14;;;;;;;22.48;10.55;;;;;;;9.74;87.36;100861.91;1694832;83;21150;-63
2022/03/02 03:42:41;;;;;;;20.80;9.35;;;;;;;9.69;87.10;100852.45;1693748;83;21537;-65
2022/03/02 03:45:09;;;;;;;18.57;8.83;;;;;;;9.80;87.11;100866.94;1692641;83;21196;-64
2022/03/02 03:47:35;;;;;;;19.25;9.18;;;;;;;9.79;86.42;100843.67;1702157;83;20987;-77
2022/03/02 03:50:04;;;;;;;21.62;9.93;;;;;;;9.60;89.00;100856.52;1676895;83;21066;-65
2022/03/02 03:52:30;;;;;;;22.65;8.83;;;;;;;9.66;88.71;100860.61;1682455;83;21617;-65
2022/03/02 03:54:57;;;;;;;16.55;8.95;;;;;;;9.74;88.36;100859.80;1686803;83;21146;-65
2022/03/02 03:57:24;;;;;;;16.50;8.85;;;;;;;9.74;87.65;100849.38;1686977;83;21187;-65
2022/03/02 03:59:51;;;;;;;20.40;10.00;;;;;;;9.93;85.96;100849.05;1684970;83;21046;-79
2022/03/02 04:02:18;;;;;;;20.32;8.83;;;;;;;9.99;84.58;100853.58;1690366;80;22374;-68
2022/03/02 04:04:44;;;;;;;17.90;8.95;;;;;;;9.47;91.09;100853.92;1695586;84;21437;-68
2022/03/02 04:07:11;;;;;;;15.72;8.75;;;;;;;9.55;90.72;100861.41;1694156;84;21022;-69
2022/03/02 04:09:39;;;;;;;17.30;8.55;;;;;;;9.60;90.00;100862.54;1699813;84;21206;-70
2022/03/02 04:12:08;;;;;;;16.35;8.48;;;;;;;9.67;89.01;100866.62;1699976;83;21401;-72
2022/03/02 04:14:37;;;;;;;15.80;8.68;;;;;;;9.13;92.28;100860.98;1695604;84;21659;-71
2022/03/02 04:17:04;;;;;;;17.73;9.80;;;;;;;9.21;93.48;100862.33;1692617;84;20940;-72
2022/03/02 04:19:31;;;;;;;17.00;9.68;;;;;;;8.68;97.22;100860.36;1693601;84;21106;-72
2022/03/02 04:21:57;;;;;;;19.50;8.90;;;;;;;8.51;100.00;100859.94;1696021;82;21152;-73
2022/03/02 04:24:24;;;;;;;17.98;8.45;;;;;;;8.43;100.00;100868.50;1697967;84;21067;-70
2022/03/02 04:26:52;;;;;;;17.12;7.87;;;;;;;8.29;100.00;100869.03;1696273;84;21074;-69
2022/03/02 04:29:18;;;;;;;16.77;8.80;;;;;;;8.44;100.00;100866.22;1695817;84;21008;-68
2022/03/02 04:31:45;;;;;;;17.75;9.93;;;;;;;8.40;100.00;100869.29;1699681;84;21135;-72
2022/03/02 04:34:13;;;;;;;16.27;8.10;;;;;;;8.35;100.00;100870.21;1682937;84;22379;-73
2022/03/02 04:36:39;;;;;;;15.58;7.75;;;;;;;8.57;100.00;100860.63;1656125;86;21497;-66
2022/03/02 04:39:06;;;;;;;18.35;9.10;;;;;;;8.53;100.00;100860.13;1700793;84;21118;-68
2022/03/02 04:41:34;;;;;;;19.07;10.05;;;;;;;8.60;100.00;100869.42;1682750;83;21023;-68
2022/03/02 04:44:01;;;;;;;18.37;9.23;;;;;;;8.72;100.00;100862.16;1679590;85;20999;-68
2022/03/02 04:46:28;;;;;;;16.27;8.45;;;;;;;8.74;100.00;100866.70;1676600;85;21134;-66
2022/03/02 04:48:55;;;;;;;19.35;9.38;;;;;;;8.70;100.00;100873.99;1662699;85;21569;-69
2022/03/02 04:51:22;;;;;;;16.97;9.83;;;;;;;8.78;100.00;100868.02;1695259;83;21475;-66
2022/03/02 04:53:50;;;;;;;16.48;8.18;;;;;;;8.70;100.00;100867.49;1686400;84;21423;-72
2022/03/02 04:56:17;;;;;;;13.83;7.83;;;;;;;8.80;100.00;100867.39;1677422;84;21082;-65
2022/03/02 04:58:44;;;;;;;18.50;8.55;;;;;;;8.61;100.00;100866.33;1685201;84;21123;-65
2022/03/02 05:01:10;;;;;;;15.13;7.97;;;;;;;8.40;100.00;100867.98;1672013;84;21570;-64
2022/03/02 05:03:37;;;;;;;14.58;8.15;;;;;;;8.69;100.00;100872.86;1683525;83;21020;-66
2022/03/02 05:06:04;;;;;;;13.65;7.35;;;;;;;8.74;100.00;100865.41;1682550;84;21049;-74
2022/03/02 05:08:31;;;;;;;14.83;8.18;;;;;;;8.97;100.00;100870.36;1656840;86;21043;-64
2022/03/02 05:10:57;;;;;;;15.93;8.15;;;;;;;9.00;100.00;100870.55;1659439;84;21181;-64
2022/03/02 05:13:24;;;;;;;14.10;7.90;;;;;;;9.07;100.00;100869.44;1683724;85;21127;-63
2022/03/02 05:15:51;;;;;;;14.18;7.90;;;;;;;8.92;100.00;100872.62;1681025;85;21091;-75
2022/03/02 05:18:19;;;;;;;16.17;8.03;;;;;;;8.98;100.00;100874.61;1697306;83;21126;-67
2022/03/02 05:20:47;;;;;;;16.35;8.50;;;;;;;8.87;100.00;100876.69;1696280;84;21099;-64
2022/03/02 05:23:13;;;;;;;15.75;8.25;;;;;;;8.86;100.00;100876.33;1701325;84;22044;-64
2022/03/02 05:25:40;;;;;;;14.85;7.90;;;;;;;8.91;100.00;100881.90;1704893;84;20972;-63
2022/03/02 05:28:07;;;;;;;13.93;7.30;;;;;;;8.94;100.00;100879.80;1695002;84;21572;-67
2022/03/02 05:30:34;;;;;;;12.03;7.67;;;;;;;8.91;100.00;100882.70;1680753;84;21624;-66
2022/03/02 05:33:01;;;;;;;13.72;7.80;;;;;;;9.03;100.00;100878.03;1686830;84;21170;-66
2022/03/02 05:35:27;;;;;;;12.88;7.70;;;;;;;8.79;100.00;100870.97;1685310;83;21166;-67
2022/03/02 05:37:54;;;;;;;15.10;8.58;;;;;;;8.67;100.00;100873.48;1686133;84;21025;-72
2022/03/02 05:40:21;;;;;;;15.63;8.30;;;;;;;8.68;100.00;100872.54;1689519;84;22448;-71
2022/03/02 05:42:48;;;;;;;14.33;7.90;;;;;;;8.61;100.00;100872.34;1701973;83;20960;-68
2022/03/02 05:45:15;;;;;;;17.37;8.25;;;;;;;8.38;100.00;100866.86;1701425;84;21094;-68
2022/03/02 05:47:41;;;;;;;14.30;7.37;;;;;;;8.47;100.00;100863.32;1694483;84;22372;-68
2022/03/02 05:50:09;;;;;;;14.15;7.60;;;;;;;8.46;100.00;100871.28;1700052;83;21064;-68
2022/03/02 05:52:37;;;;;;;15.03;7.97;;;;;;;8.41;100.00;100872.20;1697528;83;21135;-66
2022/03/02 05:55:06;;;;;;;12.73;7.80;;;;;;;8.65;100.00;100865.86;1685557;83;37891;-66
2022/03/02 05:57:34;;;;;;;13.60;7.90;;;;;;;8.85;100.00;100872.11;1648348;85;21091;-67
2022/03/02 06:00:02;;;;;;;12.37;7.75;;;;;;;8.88;100.00;100870.02;1700908;83;21143;-69
2022/03/02 06:02:31;;;;;;;15.10;7.37;;;;;;;9.09;100.00;100871.37;1691022;84;21151;-68
2022/03/02 06:05:00;;;;;;;15.20;8.83;;;;;;;9.43;100.00;100862.18;1689328;84;21623;-67
2022/03/02 06:07:28;;;;;;;14.15;8.00;;;;;;;9.06;100.00;100861.31;1696331;83;21064;-66
2022/03/02 06:09:56;;;;;;;12.95;8.03;;;;;;;8.96;100.00;100869.23;1690504;84;21246;-65
2022/03/02 06:12:24;;;;;;;13.53;8.25;;;;;;;8.73;100.00;100859.88;1691615;83;21132;-71
2022/03/02 06:14:53;;;;;;;13.85;7.47;;;;;;;8.82;100.00;100866.73;1691739;82;21358;-66
2022/03/02 06:17:21;;;;;;;15.15;8.65;;;;;;;8.82;100.00;100856.33;1669481;85;21059;-66
2022/03/02 06:19:50;;;;;;;13.95;7.78;;;;;;;8.69;100.00;100862.47;1655193;85;21078;-67
2022/03/02 06:22:17;;;;;;;15.80;7.97;;;;;;;8.72;100.00;100862.16;1645145;86;21036;-71
2022/03/02 06:24:45;;;;;;;13.00;7.15;;;;;;;8.74;100.00;100856.30;1652259;85;22381;-66
2022/03/02 06:27:14;;;;;;;14.23;7.78;;;;;;;8.71;100.00;100867.00;1651400;86;20997;-67
2022/03/02 06:29:41;;;;;;;13.48;7.10;;;;;;;8.70;100.00;100862.78;1652047;85;21032;-67
2022/03/02 06:32:09;;;;;;;14.15;8.15;;;;;;;8.73;100.00;100861.99;1650753;86;21295;-69
2022/03/02 06:34:36;;;;;;;17.10;8.68;;;;;;;8.77;100.00;100862.01;1648393;86;21108;-66
2022/03/02 06:37:04;;;;;;;13.43;7.53;;;;;;;7.98;100.00;100850.00;1659776;85;21160;-66
2022/03/02 06:39:31;;;;;;;14.03;8.40;;;;;;;7.58;100.00;100856.99;1647056;86;21001;-66
2022/03/02 06:42:24;;;;;;;12.35;7.50;;;;;;;7.73;100.00;100853.39;1666744;85;21147;-66
2022/03/02 06:45:11;;;;;;;11.78;7.67;;;;;;;7.60;100.00;100859.42;1643046;85;21098;-62
2022/03/02 06:47:43;;;;;;;13.98;8.00;;;;;;;7.65;100.00;100855.44;1634748;87;21587;-68
2022/03/02 06:50:12;;;;;;;14.53;8.68;;;;;;;8.44;100.00;100850.63;1633930;87;21186;-64
2022/03/02 06:52:43;;;;;;;14.40;7.42;;;;;;;8.46;100.00;100858.30;1659609;86;20996;-65
2022/03/02 06:55:15;;;;;;;13.03;7.72;;;;;;;8.61;100.00;100861.94;1662934;86;21130;-70
2022/03/02 06:57:45;;;;;;;;;;;;;;;8.66;100.00;100863.58;1666302;85;21050;-63
2022/03/02 07:00:16;;;;;;;13.00;8.15;;;;;;;8.80;100.00;100859.59;1661072;85;20149;-63
2022/03/02 07:02:48;;;;;;;11.08;7.05;;;;;;;8.84;100.00;100854.89;1654913;86;21160;-64
2022/03/02 07:05:15;;;;;;;11.97;6.83;;;;;;;8.96;100.00;100845.83;1651018;86;20964;-71
2022/03/02 07:08:03;;;;;;;11.70;6.45;;;;;;;8.98;100.00;100846.01;1651073;86;21372;-67
2022/03/02 07:10:35;;;;;;;12.03;6.08;;;;;;;8.90;100.00;100844.69;1651727;85;21097;-65
2022/03/02 07:13:06;;;;;;;12.65;7.35;;;;;;;8.85;100.00;100844.33;1671334;85;20957;-68
2022/03/02 07:15:34;;;;;;;10.88;6.50;;;;;;;8.68;100.00;100847.36;1670375;83;21141;-62
2022/03/02 07:18:02;;;;;;;10.65;6.83;;;;;;;9.00;100.00;100849.73;1676408;85;20970;-61
2022/03/02 07:20:30;;;;;;;12.18;7.03;;;;;;;8.88;100.00;100852.31;1677115;83;21092;-67
2022/03/02 07:22:59;;;;;;;16.07;11.03;;;;;;;8.71;100.00;100848.35;1720841;81;21027;-64
2022/03/02 07:25:29;;;;;;;43.63;31.02;;;;;;;8.94;100.00;100838.66;1697637;83;21615;-63
2022/03/02 07:27:57;;;;;;;11.20;7.33;;;;;;;8.84;100.00;100849.70;1714541;81;21605;-65
2022/03/02 07:30:24;;;;;;;11.03;7.47;;;;;;;8.89;100.00;100846.94;1715193;81;21123;-72
2022/03/02 07:33:00;;;;;;;10.28;6.12;;;;;;;9.01;100.00;100840.47;1715935;81;20952;-66
2022/03/02 07:35:29;;;;;;;7.75;5.08;;;;;;;9.00;100.00;100837.55;1713598;81;21056;-65
2022/03/02 07:37:57;;;;;;;8.58;5.55;;;;;;;9.08;100.00;100841.14;1740950;82;21078;-68
2022/03/02 07:40:24;;;;;;;7.17;4.58;;;;;;;9.18;100.00;100841.83;1742336;80;21137;-68
2022/03/02 07:42:51;;;;;;;9.35;4.87;;;;;;;9.12;100.00;100830.26;1744453;80;21145;-65
2022/03/02 07:45:18;;;;;;;7.95;5.12;;;;;;;9.16;100.00;100828.16;1738015;80;21082;-67
2022/03/02 07:47:46;;;;;;;9.98;5.78;;;;;;;9.24;100.00;100827.70;1725514;81;21059;-66
2022/03/02 07:50:14;;;;;;;7.62;5.00;;;;;;;9.37;100.00;100833.73;1723564;81;20959;-67
2022/03/02 07:52:48;;;;;;;7.58;4.87;;;;;;;9.49;100.00;100827.23;1722485;81;21138;-68
2022/03/02 07:55:17;;;;;;;7.60;4.83;;;;;;;9.48;100.00;100823.50;1729171;82;20997;-68
2022/03/02 07:57:44;;;;;;;10.55;8.23;;;;;;;9.52;100.00;100820.09;1723887;81;20967;-64
2022/03/02 08:00:13;;;;;;;13.68;10.03;;;;;;;9.66;100.00;100815.05;1731767;82;21126;-71
2022/03/02 08:02:40;;;;;;;8.70;6.33;;;;;;;9.59;100.00;100814.07;1724562;81;21375;-65
2022/03/02 08:05:08;;;;;;;7.80;4.90;;;;;;;9.66;100.00;100813.75;1730801;81;22214;-66
2022/03/02 08:07:36;;;;;;;9.13;6.47;;;;;;;9.67;100.00;100798.94;1726293;81;20924;-67
2022/03/02 08:10:04;;;;;;;8.05;5.45;;;;;;;9.52;100.00;100799.27;1725261;82;20953;-64
2022/03/02 08:12:31;;;;;;;7.53;5.55;;;;;;;9.65;100.00;100800.39;1724349;81;21081;-71
2022/03/02 08:15:00;;;;;;;8.88;6.35;;;;;;;9.70;100.00;100798.62;1730217;81;21988;-66
2022/03/02 08:17:28;;;;;;;8.73;5.42;;;;;;;9.92;100.00;100796.61;1720705;81;21974;-68
2022/03/02 08:19:57;;;;;;;8.63;6.25;;;;;;;9.98;100.00;100800.36;1728824;81;21047;-66
2022/03/02 08:22:25;;;;;;;8.88;5.72;;;;;;;9.99;100.00;100800.19;1725037;81;21011;-71
2022/03/02 08:25:10;;;;;;;9.13;5.85;;;;;;;10.02;100.00;100795.14;1730222;81;21087;-66
2022/03/02 08:27:42;;;;;;;8.55;5.37;;;;;;;10.20;100.00;100797.55;1666261;84;21131;-77
2022/03/02 08:30:13;;;;;;;8.10;5.42;;;;;;;10.23;100.00;100794.62;1731555;80;21073;-75
2022/03/02 08:32:46;;;;;;;9.35;6.17;;;;;;;10.33;100.00;100787.42;1704018;82;21013;-69
2022/03/02 08:35:13;;;;;;;9.28;6.12;;;;;;;10.27;100.00;100788.12;1717381;81;21392;-64
2022/03/02 08:37:41;;;;;;;9.45;5.85;;;;;;;9.98;100.00;100782.94;1722949;81;21097;-65
2022/03/02 08:40:10;;;;;;;9.25;5.42;;;;;;;9.83;100.00;100775.48;1728204;81;21129;-77
2022/03/02 08:42:40;;;;;;;8.18;5.15;;;;;;;9.91;100.00;100777.26;1703738;81;21157;-62
2022/03/02 08:45:08;;;;;;;8.88;5.62;;;;;;;9.87;100.00;100767.66;1733234;82;21053;-62
2022/03/02 08:47:35;;;;;;;7.75;5.33;;;;;;;9.81;100.00;100772.70;1734306;81;21506;-62
2022/03/02 08:50:05;;;;;;;9.58;5.42;;;;;;;10.04;100.00;100762.41;1729825;82;21159;-63
2022/03/02 08:52:33;;;;;;;9.00;5.85;;;;;;;10.24;100.00;100771.48;1729919;81;21082;-62
2022/03/02 08:55:04;;;;;;;8.95;6.05;;;;;;;10.36;100.00;100774.56;1732519;81;21144;-62
2022/03/02 08:57:34;;;;;;;9.75;6.15;;;;;;;10.27;100.00;100771.19;1725741;82;20983;-73
2022/03/02 09:00:05;;;;;;;8.93;5.70;;;;;;;10.48;100.00;100770.11;1729805;82;21428;-65
2022/03/02 09:02:32;;;;;;;;;;;;;;;10.53;100.00;100767.02;1709172;82;21082;-63
2022/03/02 09:05:02;;;;;;;8.13;5.35;;;;;;;10.45;100.00;100769.63;1730323;81;20103;-69
2022/03/02 09:07:29;;;;;;;10.23;6.05;;;;;;;10.46;100.00;100770.78;1728137;81;21121;-63
2022/03/02 09:09:56;;;;;;;9.03;6.08;;;;;;;10.60;100.00;100765.81;1727749;81;21499;-62
2022/03/02 09:12:23;;;;;;;12.23;7.97;;;;;;;10.59;100.00;100760.30;1719289;81;21347;-74
2022/03/02 09:14:50;;;;;;;16.70;10.75;;;;;;;10.60;100.00;100750.17;1717791;83;21161;-69
2022/03/02 09:17:21;;;;;;;17.30;12.18;;;;;;;10.61;100.00;100747.91;1718069;81;21081;-76
2022/03/02 09:19:48;;;;;;;12.55;8.73;;;;;;;10.80;100.00;100746.17;1722529;81;21129;-62
2022/03/02 09:22:15;;;;;;;15.32;10.95;;;;;;;10.84;100.00;100744.03;1731285;80;21486;-76
2022/03/02 09:35:26;;;;;;;14.43;10.28;;;;;;;11.04;100.00;100736.06;1705323;83;21526;-64
2022/03/02 09:37:56;;;;;;;16.75;12.47;;;;;;;11.06;100.00;100735.87;1706165;83;20991;-63
2022/03/02 09:40:28;;;;;;;17.45;12.63;;;;;;;10.98;100.00;100726.80;1707512;83;21096;-64
2022/03/02 09:43:00;;;;;;;17.35;10.90;;;;;;;11.00;100.00;100719.63;1706870;83;20972;-64
2022/03/02 09:45:30;;;;;;;17.37;12.63;;;;;;;10.99;100.00;100723.23;1718697;81;20993;-71
2022/03/02 09:48:03;;;;;;;17.35;11.78;;;;;;;10.93;100.00;100720.31;1724466;83;21654;-65
2022/03/02 09:50:33;;;;;;;22.50;14.50;;;;;;;10.83;100.00;100718.91;1718889;83;20935;-71
2022/03/02 09:53:08;;;;;;;23.05;15.60;;;;;;;10.81;100.00;100717.80;1719339;83;21479;-61
2022/03/02 09:55:36;;;;;;;23.47;16.52;;;;;;;10.84;100.00;100720.56;1713882;81;21086;-63
2022/03/02 09:58:03;;;;;;;24.60;17.60;;;;;;;11.07;100.00;100717.95;1709263;82;21049;-64
2022/03/02 10:00:31;;;;;;;25.10;17.87;;;;;;;11.08;100.00;100714.34;1714147;81;21166;-65
2022/03/02 10:03:00;;;;;;;26.65;18.27;;;;;;;11.11;100.00;100708.78;1696912;81;21080;-65
2022/03/02 10:05:29;;;;;;;30.52;20.35;;;;;;;11.19;100.00;100704.30;1713147;82;20990;-70
2022/03/02 10:08:08;;;;;;;31.10;21.57;;;;;;;11.14;100.00;100703.22;1716569;81;21073;-73
2022/03/02 10:10:39;;;;;;;34.08;23.18;;;;;;;10.78;100.00;100699.88;1690433;81;21936;-66
2022/03/02 10:13:09;;;;;;;32.50;22.07;;;;;;;10.82;100.00;100697.73;1689366;83;21145;-62
2022/03/02 10:15:37;;;;;;;33.50;23.00;;;;;;;11.01;100.00;100689.94;1665117;84;21582;-63
2022/03/02 10:18:08;;;;;;;32.03;23.42;;;;;;;10.93;100.00;100692.12;1662342;84;21602;-63
2022/03/02 10:20:36;;;;;;;31.02;22.40;;;;;;;10.78;100.00;100688.15;1635595;85;21046;-69
2022/03/02 10:23:42;;;;;;;32.42;23.12;;;;;;;10.71;100.00;100688.02;1665997;84;20898;-66
2022/03/02 10:26:18;;;;;;;30.90;23.07;;;;;;;10.67;100.00;100680.73;1642090;84;21748;-63
2022/03/02 10:29:07;;;;;;;38.88;25.80;;;;;;;10.56;100.00;100680.63;1665304;84;21626;-64
2022/03/02 10:31:51;;;;;;;43.58;29.98;;;;;;;10.56;100.00;100680.63;1668972;84;21099;-63
2022/03/02 10:34:29;;;;;;;69.75;43.68;;;;;;;10.75;100.00;100675.45;1679198;83;21059;-64
2022/03/02 10:37:10;;;;;;;41.30;28.23;;;;;;;10.59;100.00;100666.44;1670623;83;20993;-65
2022/03/02 10:39:54;;;;;;;47.35;27.98;;;;;;;10.61;100.00;100662.69;1674445;83;21169;-64
2022/03/02 10:42:28;;;;;;;36.40;26.05;;;;;;;10.67;100.00;100657.26;1672458;83;21108;-64
2022/03/02 10:45:11;;;;;;;48.87;28.98;;;;;;;10.76;100.00;100648.41;1653182;84;21078;-63
2022/03/02 10:47:49;;;;;;;38.45;26.10;;;;;;;10.63;100.00;100650.77;1669938;84;21349;-65
2022/03/02 10:50:17;;;;;;;33.38;24.20;;;;;;;10.67;100.00;100653.34;1686928;83;21087;-66
2022/03/02 10:52:44;;;;;;;26.45;19.40;;;;;;;10.87;100.00;100654.98;1686433;83;21104;-68
2022/03/02 10:55:13;;;;;;;32.40;23.65;;;;;;;10.82;100.00;100652.11;1682822;83;21004;-65
2022/03/02 10:57:40;;;;;;;32.45;21.82;;;;;;;10.99;100.00;100639.77;1689327;83;20970;-65
2022/03/02 11:00:13;;;;;;;30.97;21.40;;;;;;;10.96;100.00;100645.62;1652460;84;21058;-66
2022/03/02 11:02:44;;;;;;;31.77;24.25;;;;;;;10.96;100.00;100644.33;1664614;83;21072;-65
2022/03/02 11:05:15;;;;;;;30.05;22.52;;;;;;;10.83;100.00;100645.40;1684115;83;21211;-66
2022/03/02 11:07:43;;;;;;;32.65;22.80;;;;;;;10.61;100.00;100641.83;1679118;83;21077;-69
2022/03/02 11:10:14;;;;;;;31.90;24.55;;;;;;;10.67;100.00;100641.61;1683149;83;21425;-66
2022/03/02 11:12:42;;;;;;;34.40;24.75;;;;;;;10.80;100.00;100636.64;1707236;83;20962;-67
2022/03/02 11:15:11;;;;;;;33.65;25.05;;;;;;;11.01;100.00;100635.97;1712020;83;21470;-68
2022/03/02 11:17:56;;;;;;;35.75;25.82;;;;;;;11.08;100.00;100634.28;1707156;83;21056;-68
2022/03/02 11:20:25;;;;;;;31.30;23.05;;;;;;;11.11;100.00;100636.54;1704335;83;21106;-67
2022/03/02 11:22:59;;;;;;;33.20;25.00;;;;;;;11.14;100.00;100636.19;1707603;83;21554;-66
2022/03/02 11:25:49;;;;;;;34.45;26.42;;;;;;;10.82;100.00;100629.44;1700497;83;21074;-67
2022/03/02 11:28:19;;;;;;;35.78;26.00;;;;;;;9.44;100.00;100639.56;1701757;83;21139;-66
2022/03/02 11:30:54;;;;;;;33.40;25.17;;;;;;;9.44;100.00;100637.45;1701610;83;21794;-66
2022/03/02 11:33:24;;;;;;;33.63;26.75;;;;;;;9.33;100.00;100633.89;1708459;83;21600;-66
2022/03/02 11:35:53;;;;;;;39.35;27.55;;;;;;;9.28;100.00;100637.00;1693104;84;21787;-66
2022/03/02 11:38:21;;;;;;;38.30;27.17;;;;;;;9.20;100.00;100631.78;1696524;82;21046;-67